Shirley, IL (61772)

9:12 PM CST on December 05, 2016 (GMT -0600)
| | Change Station

Elev -9999 ft 0.00 °N, 0.00 °E | Updated

Light Freezing Fog
Freezing Fog
°F
Feels Like °F
N
Wind Variable Wind from North
Gusts mph

Today
High -- | Low -- °F
--% Chance of Precip.
Yesterday
High -- | Low -- °F
Precip. -- in
Pressure 29.98 in
Visibility 0.5 miles
Clouds Overcast 100 ft
Dew Point Not available.
Humidity Not available.
Rainfall --
Snow Depth Not available.
7:04 AM 4:29 PM
Waxing Crescent, 37% visible
METAR KBMI 060256Z 08006KT 1/2SM R20/2600V6000FT FZFG OVC001 M01/M02 A2991 RMK AO2 SLP152 T10111017 56013
Pressure 29.98 in
Visibility 0.5 miles
Clouds Overcast 100 ft
Dew Point Not available.
Humidity Not available.
Rainfall --
Snow Depth Not available.
7:04 AM 4:29 PM
Waxing Crescent, 37% visible
METAR KBMI 060256Z 08006KT 1/2SM R20/2600V6000FT FZFG OVC001 M01/M02 A2991 RMK AO2 SLP152 T10111017 56013

10-Day Weather Forecast

Almanac

Astronomy

Dec. 05, 2016 Rise Set
Actual Time
Civil Twilight
Nautical Twilight
Astronomical Twilight
Moon
Length of Visible Light
Length of Day
Tomorrow will be .
, % of the Moon is Illuminated

Today's Extremes

State Highs State Lows

Community

WunderPhotos

Upload Photos

1,955,900 photos uploaded!

WunderBlog® & News

Nearby

Air Quality

  Air Quality AQ Index Pollutant
Not available.

Snow Depth

Station Depth Elevation

Earthquake Activity

City Distance Mag. Time & Date
Minimum magnitude displayed is 2.5.

Coastal Water Temperatures

Place Temperature

Stations

Nearby Weather Stations

Station Location Temp. Windchill Dew Point Humidity Wind Precip. Elev Updated Type
                   

Watches & Warnings

There are currently no watches in effect.